Time;durP1;ratioP1;P1;durP2;ratioP2;P2;SDS_P1;SDS_P2;PMS_P1;PMS_P2;Temp;Humidity;BMP_temperature;BMP_pressure;BME280_temperature;BME280_humidity;BME280_pressure;Samples;Min_cycle;Max_cycle;Signal;HPM_P1;HPM_P2
2021/03/20 00:00:16;;;;;;;5.57;3.75;;;8.10;53.40;;;;;;5065574;28;20039;-70
2021/03/20 00:02:42;;;;;;;7.28;4.32;;;8.00;53.40;;;;;;5065609;28;20309;-71
2021/03/20 00:05:09;;;;;;;7.95;4.45;;;8.10;53.60;;;;;;5065568;28;20051;-71
2021/03/20 00:07:35;;;;;;;6.18;4.10;;;8.00;53.50;;;;;;5065474;28;20016;-71
2021/03/20 00:10:02;;;;;;;7.15;4.43;;;8.00;53.40;;;;;;5065580;28;20056;-71
2021/03/20 00:12:28;;;;;;;7.97;4.35;;;8.10;53.50;;;;;;5065415;28;20039;-69
2021/03/20 00:14:54;;;;;;;6.93;4.05;;;8.00;53.50;;;;;;5065367;28;20092;-71
2021/03/20 00:17:20;;;;;;;6.47;4.15;;;8.10;53.50;;;;;;5065397;28;20032;-69
2021/03/20 00:19:45;;;;;;;8.82;4.78;;;8.10;53.50;;;;;;5065282;28;20024;-71
2021/03/20 00:22:11;;;;;;;7.15;4.20;;;8.00;53.50;;;;;;5065030;28;20045;-71
2021/03/20 00:24:37;;;;;;;5.97;3.88;;;8.00;53.60;;;;;;5065155;28;20030;-71
2021/03/20 00:27:03;;;;;;;6.68;4.15;;;8.00;53.60;;;;;;5065162;28;20020;-71
2021/03/20 00:29:29;;;;;;;5.97;4.60;;;8.00;53.60;;;;;;5065049;28;20025;-68
2021/03/20 00:31:54;;;;;;;6.60;4.15;;;8.00;53.60;;;;;;5065016;28;20068;-71
2021/03/20 00:34:20;;;;;;;5.63;3.85;;;8.00;53.60;;;;;;5065127;28;20058;-72
2021/03/20 00:36:46;;;;;;;8.57;3.90;;;8.00;53.60;;;;;;5065025;28;20072;-70
2021/03/20 00:39:11;;;;;;;6.20;4.00;;;8.00;53.60;;;;;;5064891;28;20020;-69
2021/03/20 00:41:38;;;;;;;6.72;4.05;;;8.00;53.60;;;;;;5064759;28;20076;-72
2021/03/20 00:44:04;;;;;;;7.68;4.25;;;8.00;53.60;;;;;;5064848;28;20040;-70
2021/03/20 00:46:29;;;;;;;8.77;4.22;;;8.00;53.60;;;;;;5064831;28;20021;-71
2021/03/20 00:48:55;;;;;;;5.82;3.65;;;8.00;53.70;;;;;;5064726;28;20040;-71
2021/03/20 00:51:21;;;;;;;8.68;4.38;;;8.00;53.60;;;;;;5064815;28;20343;-72
2021/03/20 00:53:47;;;;;;;5.35;4.18;;;8.00;53.70;;;;;;5064245;28;20037;-72
2021/03/20 00:56:12;;;;;;;6.20;3.88;;;8.00;53.70;;;;;;5064735;28;20371;-71
2021/03/20 00:58:41;;;;;;;7.40;4.80;;;8.00;53.70;;;;;;5064552;28;20032;-71
2021/03/20 01:01:10;;;;;;;5.85;3.88;;;8.00;53.70;;;;;;5064535;28;20028;-70
2021/03/20 01:03:38;;;;;;;4.50;3.78;;;8.00;53.70;;;;;;5064553;28;20055;-72
2021/03/20 01:06:06;;;;;;;6.38;4.00;;;8.00;53.70;;;;;;5064494;28;20056;-71
2021/03/20 01:08:33;;;;;;;5.25;4.03;;;8.00;53.60;;;;;;5064423;28;20093;-70
2021/03/20 01:10:58;;;;;;;5.35;3.80;;;8.00;53.70;;;;;;5064335;28;20060;-69
2021/03/20 01:13:24;;;;;;;7.03;4.40;;;8.00;53.60;;;;;;5064331;28;20037;-71
2021/03/20 01:15:50;;;;;;;7.00;4.47;;;8.00;53.80;;;;;;5064314;28;20021;-71
2021/03/20 01:18:17;;;;;;;6.63;4.40;;;8.00;53.70;;;;;;5064254;28;20032;-71
2021/03/20 01:20:44;;;;;;;6.07;3.85;;;8.00;53.70;;;;;;5063952;28;20041;-71
2021/03/20 01:23:10;;;;;;;7.70;4.03;;;8.00;53.70;;;;;;5064121;28;20028;-70
2021/03/20 01:25:36;;;;;;;6.90;4.20;;;8.00;53.70;;;;;;5064031;28;20025;-69
2021/03/20 01:28:02;;;;;;;6.35;4.22;;;8.00;53.80;;;;;;5064107;28;20016;-71
2021/03/20 01:30:34;;;;;;;7.78;4.45;;;8.00;53.80;;;;;;5064058;28;20033;-69
2021/03/20 01:33:00;;;;;;;6.32;4.03;;;7.90;53.70;;;;;;5063953;28;20017;-70
2021/03/20 01:35:26;;;;;;;6.07;4.47;;;7.90;53.80;;;;;;5063908;28;20050;-72
2021/03/20 01:37:52;;;;;;;6.68;4.05;;;7.90;53.80;;;;;;5063886;28;20025;-71
2021/03/20 01:40:23;;;;;;;5.05;3.63;;;7.90;53.80;;;;;;5063856;28;20335;-72
2021/03/20 01:42:49;;;;;;;6.05;4.05;;;7.90;53.80;;;;;;5062565;28;20104;-72
2021/03/20 01:45:20;;;;;;;7.50;4.30;;;7.90;53.90;;;;;;5063763;28;20227;-73
2021/03/20 01:48:10;;;;;;;5.43;4.05;;;7.90;53.90;;;;;;5063642;28;20028;-72
2021/03/20 01:50:50;;;;;;;8.88;3.90;;;7.90;54.00;;;;;;5063626;28;20021;-71
2021/03/20 01:53:38;;;;;;;5.60;4.13;;;7.90;53.80;;;;;;5063545;28;20055;-70
2021/03/20 01:56:07;;;;;;;10.13;4.93;;;7.90;54.00;;;;;;5063589;28;20051;-68
2021/03/20 01:58:35;;;;;;;5.50;3.83;;;7.90;54.00;;;;;;5063543;28;20029;-68
2021/03/20 02:01:14;;;;;;;6.55;4.32;;;7.80;54.00;;;;;;5063483;28;20027;-71
2021/03/20 02:03:40;;;;;;;7.82;4.38;;;7.80;54.00;;;;;;5063396;28;20059;-70
2021/03/20 02:06:07;;;;;;;8.02;4.32;;;7.80;54.00;;;;;;5062528;28;20071;-70
2021/03/20 02:08:37;;;;;;;7.60;4.45;;;7.80;53.90;;;;;;5063252;28;20028;-68
2021/03/20 02:11:25;;;;;;;;;;;7.80;54.00;;;;;;5063789;28;20311;-72
2021/03/20 02:14:09;;;;;;;5.80;3.97;;;7.90;54.00;;;;;;5063167;28;19900;-71
2021/03/20 02:16:44;;;;;;;8.57;3.97;;;7.80;54.00;;;;;;5063133;28;20084;-71
2021/03/20 02:19:40;;;;;;;6.68;4.15;;;7.80;54.10;;;;;;5063094;28;20021;-68
2021/03/20 02:22:15;;;;;;;8.05;4.47;;;7.80;54.10;;;;;;5062809;28;20044;-71
2021/03/20 02:24:59;;;;;;;7.00;4.40;;;7.80;54.10;;;;;;5063037;28;20032;-73
2021/03/20 02:27:33;;;;;;;6.07;4.03;;;7.80;54.10;;;;;;5063008;28;20059;-72
2021/03/20 02:30:20;;;;;;;5.28;3.95;;;7.80;54.10;;;;;;5062953;28;20088;-71
2021/03/20 02:32:52;;;;;;;7.60;4.35;;;7.80;54.30;;;;;;5062802;28;20037;-71
2021/03/20 02:35:21;;;;;;;4.72;3.38;;;7.80;54.20;;;;;;5062913;28;20051;-70
2021/03/20 02:38:14;;;;;;;6.35;4.22;;;7.80;54.10;;;;;;5062792;28;20332;-71
2021/03/20 02:40:58;;;;;;;8.57;4.28;;;7.80;54.30;;;;;;5062658;28;20052;-71
2021/03/20 02:43:51;;;;;;;6.05;3.90;;;7.80;54.30;;;;;;5062634;28;20027;-70
2021/03/20 02:46:36;;;;;;;6.85;4.25;;;7.80;54.30;;;;;;5062613;28;20020;-71
2021/03/20 02:49:29;;;;;;;7.45;4.55;;;7.80;54.30;;;;;;5062617;28;20017;-72
2021/03/20 02:52:14;;;;;;;6.03;4.10;;;7.70;54.30;;;;;;5062853;28;20036;-71
2021/03/20 02:55:02;;;;;;;5.30;3.88;;;7.70;54.40;;;;;;5062755;28;20056;-72
2021/03/20 02:57:40;;;;;;;7.32;4.65;;;7.80;55.00;;;;;;5062498;28;20029;-71
2021/03/20 03:00:38;;;;;;;7.07;4.40;;;7.70;54.40;;;;;;5062471;28;20021;-72
2021/03/20 03:03:07;;;;;;;6.77;4.47;;;7.70;54.40;;;;;;5058020;28;20107;-70
2021/03/20 03:05:42;;;;;;;5.40;3.55;;;7.70;54.40;;;;;;5062365;28;20074;-71
2021/03/20 03:08:14;;;;;;;7.28;4.25;;;7.70;54.40;;;;;;5062548;28;20086;-71
2021/03/20 03:10:47;;;;;;;5.90;4.25;;;7.70;54.50;;;;;;5062262;28;20021;-71
2021/03/20 03:13:24;;;;;;;5.97;3.60;;;7.70;54.50;;;;;;5062290;28;20029;-69
2021/03/20 03:15:54;;;;;;;5.63;4.30;;;7.70;54.40;;;;;;5062057;28;20021;-71
2021/03/20 03:18:37;;;;;;;5.60;3.90;;;7.70;54.50;;;;;;5062243;28;20067;-73
2021/03/20 03:21:06;;;;;;;6.63;4.32;;;7.70;54.50;;;;;;5062023;28;20049;-71
2021/03/20 03:23:36;;;;;;;;;;;7.70;54.50;;;;;;5062591;28;20021;-71
2021/03/20 03:26:22;;;;;;;6.38;4.82;;;7.70;54.50;;;;;;5062153;28;19974;-70
2021/03/20 03:28:51;;;;;;;6.95;4.07;;;7.70;54.50;;;;;;5062078;28;20032;-69
2021/03/20 03:31:39;;;;;;;5.93;4.38;;;7.70;54.50;;;;;;5062088;28;20025;-72
2021/03/20 03:34:10;;;;;;;6.32;4.07;;;7.70;54.70;;;;;;5062110;28;20021;-72
2021/03/20 03:36:45;;;;;;;8.77;5.30;;;7.70;54.60;;;;;;5062078;28;20317;-72
2021/03/20 03:39:21;;;;;;;6.97;4.40;;;7.60;54.60;;;;;;5062052;28;20032;-71
2021/03/20 03:41:47;;;;;;;7.07;3.80;;;7.60;54.70;;;;;;5061945;28;20055;-72
2021/03/20 03:44:13;;;;;;;8.90;4.75;;;7.60;54.70;;;;;;5061974;28;20028;-71
2021/03/20 03:46:43;;;;;;;6.68;4.55;;;7.60;54.70;;;;;;5061973;28;20025;-68
2021/03/20 03:49:13;;;;;;;6.75;4.40;;;7.60;54.70;;;;;;5061049;28;20338;-71
2021/03/20 03:51:39;;;;;;;7.85;5.15;;;7.60;54.70;;;;;;5061939;28;20033;-67
2021/03/20 03:54:05;;;;;;;5.90;4.65;;;7.60;54.60;;;;;;5061917;28;20213;-71
2021/03/20 03:56:36;;;;;;;6.35;4.93;;;7.60;54.60;;;;;;5062119;28;20024;-70
2021/03/20 03:59:16;;;;;;;6.60;4.20;;;7.60;54.70;;;;;;5061843;28;20194;-71
2021/03/20 04:01:41;;;;;;;6.93;4.10;;;7.60;54.70;;;;;;5061752;28;20020;-70
2021/03/20 04:04:21;;;;;;;5.93;4.63;;;7.60;54.70;;;;;;5061881;28;20043;-70
2021/03/20 04:07:01;;;;;;;7.40;4.97;;;7.60;54.70;;;;;;5061812;28;20017;-71
2021/03/20 04:09:42;;;;;;;8.02;4.70;;;7.60;54.60;;;;;;5061801;28;20021;-72
2021/03/20 04:12:18;;;;;;;7.45;3.78;;;7.60;54.80;;;;;;5061713;28;20339;-71
2021/03/20 04:14:55;;;;;;;9.15;4.45;;;7.60;54.80;;;;;;5061767;28;20028;-68
2021/03/20 04:17:25;;;;;;;4.93;3.95;;;7.60;54.70;;;;;;5061729;28;20044;-71
2021/03/20 04:20:16;;;;;;;5.63;3.90;;;7.60;54.70;;;;;;5061688;28;20263;-71
2021/03/20 04:23:01;;;;;;;7.95;4.95;;;7.60;54.70;;;;;;5061621;28;20037;-72
2021/03/20 04:26:04;;;;;;;6.63;4.47;;;7.60;54.80;;;;;;5061649;28;20298;-72
2021/03/20 04:28:57;;;;;;;6.63;4.18;;;7.50;54.80;;;;;;5063069;28;20043;-70
2021/03/20 04:31:35;;;;;;;6.82;4.22;;;7.60;54.80;;;;;;5065195;28;20314;-71
2021/03/20 04:34:07;;;;;;;6.05;4.45;;;7.50;54.80;;;;;;5065159;28;20359;-71
2021/03/20 04:36:38;;;;;;;6.15;4.00;;;7.60;54.80;;;;;;5065032;28;20364;-72
2021/03/20 04:39:08;;;;;;;6.35;4.68;;;7.50;54.60;;;;;;5065093;28;20029;-73
2021/03/20 04:41:35;;;;;;;7.18;4.60;;;7.50;54.60;;;;;;5064998;28;20060;-67
2021/03/20 04:44:01;;;;;;;5.57;4.13;;;7.50;54.80;;;;;;5064965;28;20077;-72
2021/03/20 04:46:32;;;;;;;6.90;4.40;;;7.50;54.80;;;;;;5065027;28;20017;-72
2021/03/20 04:49:27;;;;;;;7.60;4.55;;;7.50;54.60;;;;;;5064992;28;20037;-70
2021/03/20 04:52:11;;;;;;;5.07;3.97;;;7.50;54.20;;;;;;5059970;28;20367;-71
2021/03/20 04:54:37;;;;;;;6.65;4.60;;;7.50;54.00;;;;;;5064821;28;20031;-71
2021/03/20 04:57:11;;;;;;;5.55;4.30;;;7.50;54.40;;;;;;5064756;28;20024;-72
2021/03/20 04:59:48;;;;;;;6.97;4.28;;;7.50;54.30;;;;;;5064779;28;20248;-70
2021/03/20 05:02:40;;;;;;;5.55;3.90;;;7.50;54.40;;;;;;5064692;28;20096;-67
2021/03/20 05:05:23;;;;;;;5.72;4.43;;;7.60;54.30;;;;;;5064665;28;20378;-72
2021/03/20 05:07:49;;;;;;;5.85;4.32;;;7.50;54.30;;;;;;5064597;28;20024;-67
2021/03/20 05:10:31;;;;;;;6.43;4.57;;;7.50;54.10;;;;;;5064470;28;20017;-71
2021/03/20 05:12:59;;;;;;;6.53;4.60;;;7.50;54.40;;;;;;5064505;28;20054;-71
2021/03/20 05:15:29;;;;;;;6.90;4.45;;;7.50;54.30;;;;;;5063281;28;20213;-72
2021/03/20 05:17:55;;;;;;;6.18;4.75;;;7.50;54.40;;;;;;5064422;28;20213;-71
2021/03/20 05:20:22;;;;;;;5.60;4.32;;;7.50;54.10;;;;;;5064105;28;20076;-71
2021/03/20 05:22:48;;;;;;;8.30;5.28;;;7.50;54.50;;;;;;5064327;28;20209;-71
2021/03/20 05:25:17;;;;;;;7.97;5.03;;;7.50;54.50;;;;;;5064263;28;20021;-70
2021/03/20 05:27:43;;;;;;;6.03;4.55;;;7.50;54.40;;;;;;5064264;28;20020;-73
2021/03/20 05:30:10;;;;;;;7.25;4.88;;;7.50;54.20;;;;;;5064178;28;20060;-68
2021/03/20 05:32:36;;;;;;;7.00;4.57;;;7.50;54.10;;;;;;5063753;28;20013;-71
2021/03/20 05:35:06;;;;;;;7.15;4.47;;;7.50;54.60;;;;;;5064043;28;20021;-71
2021/03/20 05:37:38;;;;;;;6.43;4.03;;;7.50;54.10;;;;;;5063956;28;20029;-72
2021/03/20 05:40:14;;;;;;;6.78;4.40;;;7.50;54.40;;;;;;5064079;28;20032;-71
2021/03/20 05:43:07;;;;;;;6.93;4.13;;;7.50;54.50;;;;;;5063922;28;20033;-72
2021/03/20 05:45:49;;;;;;;7.00;4.30;;;7.50;54.70;;;;;;5060095;28;20075;-73
2021/03/20 05:48:26;;;;;;;6.45;4.78;;;7.50;54.30;;;;;;5063954;28;20076;-71
2021/03/20 05:51:29;;;;;;;6.45;4.35;;;7.50;54.20;;;;;;5063741;28;20083;-71
2021/03/20 05:54:26;;;;;;;8.20;4.90;;;7.50;54.40;;;;;;5063639;28;20067;-70
2021/03/20 05:57:16;;;;;;;5.80;4.68;;;7.50;54.60;;;;;;5063600;28;20182;-71
2021/03/20 06:00:20;;;;;;;7.15;5.00;;;7.50;54.00;;;;;;5063584;28;20045;-71
2021/03/20 06:03:19;;;;;;;6.30;4.32;;;7.50;54.70;;;;;;5063563;28;20027;-68
2021/03/20 06:05:44;;;;;;;;;;;7.50;54.70;;;;;;5063952;28;20059;-70
2021/03/20 06:08:18;;;;;;;8.55;4.72;;;7.50;54.00;;;;;;5063388;28;19900;-71
2021/03/20 06:10:52;;;;;;;5.97;4.55;;;7.50;54.00;;;;;;5063455;28;20040;-69
2021/03/20 06:13:40;;;;;;;6.30;4.47;;;7.50;54.50;;;;;;5063374;28;20013;-72
2021/03/20 06:16:19;;;;;;;7.72;4.82;;;7.50;53.90;;;;;;5063315;28;20013;-71
2021/03/20 06:19:09;;;;;;;5.40;4.40;;;7.50;54.40;;;;;;5063285;28;20017;-72
2021/03/20 06:21:53;;;;;;;6.07;4.25;;;7.50;54.20;;;;;;5063009;28;20261;-72
2021/03/20 06:24:28;;;;;;;5.30;4.22;;;7.50;54.20;;;;;;5063106;28;20332;-70
2021/03/20 06:26:55;;;;;;;6.68;4.53;;;7.50;54.20;;;;;;5063142;28;20450;-66
2021/03/20 06:29:29;;;;;;;7.13;4.85;;;7.60;54.30;;;;;;5063117;28;20063;-71
2021/03/20 06:32:18;;;;;;;6.65;4.28;;;7.60;54.30;;;;;;5063077;28;20017;-72
2021/03/20 06:35:02;;;;;;;6.82;5.03;;;7.60;54.50;;;;;;5062969;28;20029;-70
2021/03/20 06:37:33;;;;;;;5.47;3.92;;;7.50;53.90;;;;;;5062986;28;20016;-72
2021/03/20 06:40:13;;;;;;;6.00;4.30;;;7.60;54.70;;;;;;5062886;28;20157;-71
2021/03/20 06:42:39;;;;;;;6.20;4.40;;;7.60;54.40;;;;;;5062883;28;20044;-70
2021/03/20 06:45:18;;;;;;;6.40;4.60;;;7.60;54.10;;;;;;5062786;28;20021;-71
2021/03/20 06:47:51;;;;;;;7.10;4.80;;;7.60;54.60;;;;;;5062851;28;20029;-67
2021/03/20 06:50:23;;;;;;;7.22;4.95;;;7.60;54.50;;;;;;5062735;28;20025;-71
2021/03/20 06:53:00;;;;;;;5.93;4.43;;;7.60;54.50;;;;;;5062335;28;20086;-68
2021/03/20 06:55:30;;;;;;;7.07;4.97;;;7.60;54.40;;;;;;5062639;28;20043;-69
2021/03/20 06:57:57;;;;;;;8.30;4.75;;;7.60;54.00;;;;;;5062568;28;20257;-71
2021/03/20 07:00:28;;;;;;;7.95;5.47;;;7.60;53.90;;;;;;5062499;28;20013;-71
2021/03/20 07:03:06;;;;;;;5.97;4.60;;;7.70;54.00;;;;;;5062506;28;20017;-68
2021/03/20 07:05:56;;;;;;;10.20;5.45;;;7.70;54.10;;;;;;5062559;28;20021;-71
2021/03/20 07:08:54;;;;;;;6.45;4.55;;;7.60;54.20;;;;;;5062463;28;20017;-68
2021/03/20 07:11:22;;;;;;;5.28;4.35;;;7.60;54.30;;;;;;5062358;28;20024;-72
2021/03/20 07:13:55;;;;;;;6.57;4.70;;;7.60;54.30;;;;;;5062390;28;20016;-72
2021/03/20 07:16:23;;;;;;;6.53;4.55;;;7.60;54.40;;;;;;5062384;28;20035;-72
2021/03/20 07:18:54;;;;;;;7.63;4.68;;;7.60;54.40;;;;;;5061102;28;20029;-68
2021/03/20 07:21:23;;;;;;;7.45;4.68;;;7.60;54.40;;;;;;5062080;28;20044;-71
2021/03/20 07:23:59;;;;;;;7.30;4.28;;;7.60;54.40;;;;;;5062256;28;20040;-71
2021/03/20 07:26:25;;;;;;;7.15;4.10;;;7.60;54.40;;;;;;5062295;28;20031;-72
2021/03/20 07:28:56;;;;;;;7.18;4.90;;;7.60;54.50;;;;;;5062163;28;20021;-69
2021/03/20 07:31:22;;;;;;;5.85;4.55;;;7.60;54.50;;;;;;5062205;28;20017;-70
2021/03/20 07:33:53;;;;;;;7.25;4.43;;;7.60;54.40;;;;;;5062150;28;20119;-72
2021/03/20 07:36:27;;;;;;;7.47;5.50;;;7.60;54.40;;;;;;5062223;28;20032;-69
2021/03/20 07:39:14;;;;;;;7.80;4.22;;;7.70;54.00;;;;;;5062103;28;20053;-71
2021/03/20 07:41:55;;;;;;;6.00;4.30;;;7.70;54.00;;;;;;5062015;28;20051;-71
2021/03/20 07:44:27;;;;;;;7.45;4.22;;;7.80;53.80;;;;;;5060824;28;20243;-71
2021/03/20 07:46:55;;;;;;;9.15;4.65;;;7.90;53.60;;;;;;5062060;28;20017;-71
2021/03/20 07:49:30;;;;;;;5.85;4.40;;;7.90;53.30;;;;;;5061933;28;20021;-70
2021/03/20 07:52:04;;;;;;;5.13;4.43;;;7.90;53.40;;;;;;5062092;28;20085;-71
2021/03/20 07:54:30;;;;;;;6.90;4.85;;;8.00;53.30;;;;;;5061919;28;20117;-71
2021/03/20 07:57:13;;;;;;;7.63;4.32;;;7.90;53.30;;;;;;5061907;28;20020;-72
2021/03/20 07:59:52;;;;;;;6.88;4.68;;;8.00;53.20;;;;;;5061943;28;20037;-69
2021/03/20 08:02:39;;;;;;;7.65;4.47;;;7.90;53.30;;;;;;5062069;28;20024;-71
2021/03/20 08:05:10;;;;;;;6.90;4.57;;;7.90;53.50;;;;;;5065622;28;20012;-71
2021/03/20 08:07:43;;;;;;;5.88;4.22;;;7.80;53.60;;;;;;5065743;28;20024;-70
2021/03/20 08:10:21;;;;;;;6.55;4.28;;;7.80;53.70;;;;;;5065668;28;20021;-70
2021/03/20 08:13:13;;;;;;;7.03;4.38;;;7.80;53.80;;;;;;5065626;28;20017;-71
2021/03/20 08:16:00;;;;;;;7.75;4.95;;;7.80;54.00;;;;;;5065302;28;20040;-69
2021/03/20 08:18:29;;;;;;;7.53;4.70;;;7.70;54.00;;;;;;5065154;28;20036;-70
2021/03/20 08:21:21;;;;;;;;;;;7.70;54.10;;;;;;5064651;28;20052;-71
2021/03/20 08:24:15;;;;;;;6.18;4.20;;;7.80;54.20;;;;;;5065360;28;20200;-71
2021/03/20 08:26:52;;;;;;;6.22;4.47;;;7.70;54.10;;;;;;5065424;28;20032;-72
2021/03/20 08:29:41;;;;;;;7.07;4.40;;;7.70;54.10;;;;;;5065366;28;20017;-72
2021/03/20 08:32:16;;;;;;;5.85;4.03;;;7.70;54.20;;;;;;5054683;28;20053;-71
2021/03/20 08:35:00;;;;;;;6.05;4.35;;;7.70;54.20;;;;;;5065264;28;20335;-71
2021/03/20 08:38:11;;;;;;;6.30;4.80;;;7.80;54.20;;;;;;5065150;28;20308;-72
2021/03/20 08:41:02;;;;;;;6.72;4.97;;;7.80;54.20;;;;;;5043089;28;20035;-71
2021/03/20 08:43:52;;;;;;;6.32;4.53;;;7.80;54.20;;;;;;5043141;28;20021;-71
2021/03/20 08:46:46;;;;;;;6.80;4.68;;;7.70;54.30;;;;;;5060772;28;20236;-72
2021/03/20 08:49:51;;;;;;;5.97;4.32;;;7.80;54.20;;;;;;5065175;28;20025;-71
2021/03/20 08:52:38;;;;;;;6.38;4.55;;;7.70;54.30;;;;;;5064766;28;20252;-72
2021/03/20 08:55:18;;;;;;;6.60;4.18;;;7.80;54.30;;;;;;5065116;28;20036;-70
2021/03/20 08:58:12;;;;;;;6.47;4.47;;;7.80;54.30;;;;;;5064729;28;20035;-70
2021/03/20 09:00:53;;;;;;;5.78;4.15;;;7.80;54.40;;;;;;5064600;28;20107;-71
2021/03/20 09:03:23;;;;;;;6.38;4.68;;;7.80;54.30;;;;;;5064709;28;20032;-70
2021/03/20 09:06:00;;;;;;;6.05;4.03;;;7.80;54.40;;;;;;5064696;28;20027;-68
2021/03/20 09:08:37;;;;;;;9.07;5.00;;;7.70;54.50;;;;;;5064646;28;20021;-69
2021/03/20 09:11:16;;;;;;;5.72;3.95;;;7.70;54.50;;;;;;5064545;28;20375;-71
2021/03/20 09:13:46;;;;;;;7.57;4.93;;;7.80;54.40;;;;;;5064272;28;20334;-72
2021/03/20 09:16:28;;;;;;;6.28;4.63;;;7.80;54.40;;;;;;5064394;28;20225;-71
2021/03/20 09:18:55;;;;;;;6.57;4.90;;;7.80;54.30;;;;;;5064392;28;20020;-71
2021/03/20 09:21:20;;;;;;;7.45;4.20;;;7.80;54.30;;;;;;5064121;28;20064;-72
2021/03/20 09:23:49;;;;;;;7.38;4.38;;;7.80;54.30;;;;;;5064322;28;20302;-72
2021/03/20 09:26:36;;;;;;;7.57;4.88;;;7.80;54.20;;;;;;5064512;28;20020;-71
2021/03/20 09:29:15;;;;;;;6.13;4.40;;;7.90;54.30;;;;;;5064172;28;20364;-71
2021/03/20 09:32:06;;;;;;;8.07;4.72;;;7.80;54.30;;;;;;5064187;28;20313;-72
2021/03/20 09:34:34;;;;;;;8.13;4.47;;;7.80;54.30;;;;;;5060801;28;20044;-69
2021/03/20 09:37:23;;;;;;;5.03;4.07;;;7.80;54.40;;;;;;5064030;28;20209;-71
2021/03/20 09:39:56;;;;;;;6.57;3.83;;;7.80;54.40;;;;;;5063710;28;20360;-70
2021/03/20 09:42:26;;;;;;;5.57;4.30;;;7.80;54.40;;;;;;5063873;28;20083;-71
2021/03/20 09:45:04;;;;;;;;;;;7.80;54.50;;;;;;5064275;28;20013;-71
2021/03/20 09:47:35;;;;;;;6.55;4.22;;;7.80;54.50;;;;;;5063940;28;19901;-71
2021/03/20 09:50:19;;;;;;;7.03;4.35;;;7.80;54.50;;;;;;5063733;28;20124;-71
2021/03/20 09:52:52;;;;;;;6.97;4.45;;;7.80;54.50;;;;;;5063786;28;20328;-71
2021/03/20 09:55:30;;;;;;;6.93;4.78;;;7.80;54.50;;;;;;5063739;28;20025;-71
2021/03/20 09:57:57;;;;;;;5.82;4.07;;;7.80;54.50;;;;;;5063593;28;20027;-70
2021/03/20 10:00:45;;;;;;;5.18;4.00;;;7.80;54.50;;;;;;5063557;28;20020;-73
2021/03/20 10:03:11;;;;;;;7.47;4.50;;;7.90;54.60;;;;;;5063507;28;20068;-71
2021/03/20 10:05:37;;;;;;;5.35;4.18;;;7.80;54.50;;;;;;5063596;28;20017;-73
2021/03/20 10:08:20;;;;;;;5.13;3.83;;;7.80;54.50;;;;;;5063429;28;20064;-72
2021/03/20 10:10:49;;;;;;;8.00;4.60;;;7.80;54.50;;;;;;5063334;28;20070;-69
2021/03/20 10:13:22;;;;;;;7.45;4.47;;;7.80;54.50;;;;;;5063302;28;20032;-72
2021/03/20 10:15:58;;;;;;;5.60;4.07;;;7.90;54.60;;;;;;5063554;28;20092;-73
2021/03/20 10:18:31;;;;;;;5.85;4.07;;;7.80;54.60;;;;;;5063222;28;20029;-71
2021/03/20 10:20:58;;;;;;;5.40;4.28;;;7.80;54.60;;;;;;5062882;28;20086;-72
2021/03/20 10:23:40;;;;;;;5.78;4.45;;;7.80;54.60;;;;;;5063130;28;20096;-71
2021/03/20 10:26:41;;;;;;;5.85;3.92;;;7.80;54.60;;;;;;5062683;28;20023;-71
2021/03/20 10:29:24;;;;;;;6.40;4.13;;;7.80;54.70;;;;;;5063044;28;20304;-72
2021/03/20 10:31:53;;;;;;;7.05;4.43;;;7.80;54.70;;;;;;5063112;28;20024;-72
2021/03/20 10:34:21;;;;;;;4.45;3.70;;;7.80;54.80;;;;;;5063012;28;20256;-69
2021/03/20 10:37:02;;;;;;;4.95;3.58;;;7.80;54.80;;;;;;5062947;28;20021;-72
2021/03/20 10:39:36;;;;;;;5.90;3.72;;;7.80;54.80;;;;;;5062895;28;20394;-72
2021/03/20 10:42:21;;;;;;;5.82;4.07;;;7.80;55.50;;;;;;5062742;28;20021;-71
2021/03/20 10:44:52;;;;;;;6.50;3.75;;;7.80;54.80;;;;;;5062724;28;20304;-71
2021/03/20 10:47:25;;;;;;;5.95;3.83;;;7.80;54.90;;;;;;5062801;28;20028;-69
2021/03/20 10:49:55;;;;;;;7.55;4.28;;;7.80;54.90;;;;;;5062913;28;20009;-71
2021/03/20 10:52:26;;;;;;;6.07;3.78;;;7.80;54.90;;;;;;5062678;28;20088;-71
2021/03/20 10:54:54;;;;;;;4.63;3.22;;;7.80;54.90;;;;;;5062610;28;20025;-71
2021/03/20 10:57:27;;;;;;;5.47;4.15;;;7.80;54.90;;;;;;5062480;28;20083;-71
2021/03/20 10:59:53;;;;;;;48.95;7.95;;;7.80;54.90;;;;;;5062445;28;20027;-71
2021/03/20 11:02:30;;;;;;;10.55;4.47;;;7.80;53.00;;;;;;5062350;28;20116;-70
2021/03/20 11:05:22;;;;;;;10.65;4.38;;;8.00;54.40;;;;;;5062342;28;20076;-70
2021/03/20 11:07:55;;;;;;;7.50;4.30;;;7.90;54.30;;;;;;5059330;28;20021;-70
2021/03/20 11:10:34;;;;;;;6.00;4.07;;;7.90;54.60;;;;;;5062250;28;20102;-71
2021/03/20 11:13:09;;;;;;;25.45;5.53;;;7.80;54.70;;;;;;5062260;28;20033;-69
2021/03/20 11:15:37;;;;;;;7.95;4.47;;;7.80;52.90;;;;;;5062367;28;20047;-73
2021/03/20 11:18:14;;;;;;;12.93;5.18;;;7.90;54.70;;;;;;5062264;28;20062;-71
2021/03/20 11:20:42;;;;;;;7.68;4.05;;;7.80;54.70;;;;;;5062154;28;20033;-70
2021/03/20 11:23:28;;;;;;;9.48;4.47;;;7.80;54.80;;;;;;5062264;28;20021;-71
2021/03/20 11:25:54;;;;;;;6.07;4.47;;;7.80;54.90;;;;;;5062120;28;20335;-67
2021/03/20 11:28:34;;;;;;;6.55;3.85;;;7.80;54.90;;;;;;5062113;28;20024;-71
2021/03/20 11:31:02;;;;;;;12.60;4.78;;;7.90;55.00;;;;;;5062323;28;20088;-71
2021/03/20 11:33:31;;;;;;;10.73;4.35;;;7.90;54.70;;;;;;5062004;28;20209;-70
2021/03/20 11:36:00;;;;;;;8.02;3.85;;;8.00;54.60;;;;;;5062070;28;20021;-72
2021/03/20 11:38:27;;;;;;;10.07;4.68;;;8.00;54.50;;;;;;5064923;28;20033;-71
2021/03/20 11:41:02;;;;;;;13.02;4.60;;;8.00;54.70;;;;;;5066031;28;20021;-71
2021/03/20 11:43:44;;;;;;;11.73;3.92;;;8.00;54.80;;;;;;5066070;28;20324;-70
2021/03/20 11:46:17;;;;;;;12.52;5.90;;;8.00;54.50;;;;;;5066095;28;20048;-69
2021/03/20 11:48:51;;;;;;;18.95;5.13;;;8.10;54.60;;;;;;5065997;28;20037;-72
2021/03/20 11:51:42;;;;;;;29.05;6.05;;;8.10;54.60;;;;;;5066010;28;20028;-71
2021/03/20 11:54:20;;;;;;;18.30;5.88;;;8.10;54.40;;;;;;5066043;28;20020;-69
2021/03/20 11:56:53;;;;;;;22.20;5.28;;;8.10;54.40;;;;;;5065884;28;20021;-69
2021/03/20 11:59:44;;;;;;;31.67;8.30;;;8.10;54.50;;;;;;5065835;28;20220;-68
2021/03/20 12:02:25;;;;;;;23.63;6.80;;;8.10;54.60;;;;;;5065650;28;20339;-70
2021/03/20 12:05:19;;;;;;;41.55;7.47;;;8.00;54.60;;;;;;5065601;28;20063;-68
2021/03/20 12:07:46;;;;;;;21.73;6.85;;;8.20;54.80;;;;;;5065750;28;20303;-73
2021/03/20 12:10:14;;;;;;;32.63;6.30;;;8.20;52.10;;;;;;5065681;28;20013;-72
2021/03/20 12:12:52;;;;;;;29.27;7.13;;;8.20;54.20;;;;;;5064512;28;20159;-71
2021/03/20 12:15:20;;;;;;;27.60;5.68;;;8.10;54.70;;;;;;5065738;28;20096;-72
2021/03/20 12:17:48;;;;;;;37.95;8.32;;;8.10;54.90;;;;;;5065590;28;20021;-70
2021/03/20 12:20:25;;;;;;;25.48;6.88;;;8.00;55.00;;;;;;5065528;28;20031;-67
2021/03/20 12:22:52;;;;;;;24.65;5.88;;;8.00;55.10;;;;;;5065581;28;20032;-73
2021/03/20 12:25:47;;;;;;;22.92;6.03;;;8.00;55.10;;;;;;5065377;28;20297;-70
2021/03/20 12:28:34;;;;;;;30.23;6.93;;;8.00;55.10;;;;;;5065490;28;20380;-72
2021/03/20 12:31:19;;;;;;;28.58;6.88;;;8.00;55.20;;;;;;5065328;28;20047;-70
2021/03/20 12:34:28;;;;;;;22.65;6.20;;;7.90;55.30;;;;;;5065321;28;20025;-72
2021/03/20 12:37:15;;;;;;;29.95;6.55;;;8.00;55.90;;;;;;5043306;28;20040;-70
2021/03/20 12:39:41;;;;;;;20.40;6.10;;;7.90;55.30;;;;;;5043324;28;20025;-72
2021/03/20 12:42:07;;;;;;;15.18;6.13;;;7.90;55.30;;;;;;5057367;28;20037;-71
2021/03/20 12:44:42;;;;;;;19.33;5.65;;;7.90;55.30;;;;;;5065109;28;20028;-71
2021/03/20 12:47:11;;;;;;;22.15;6.03;;;7.90;55.30;;;;;;5065014;28;20236;-72
2021/03/20 12:49:37;;;;;;;26.05;7.10;;;7.90;55.40;;;;;;5064250;28;20309;-72
2021/03/20 12:52:08;;;;;;;29.10;6.55;;;7.90;55.40;;;;;;5065174;28;20029;-73
2021/03/20 12:54:42;;;;;;;23.60;5.65;;;7.90;55.40;;;;;;5065212;28;20259;-71
2021/03/20 12:57:11;;;;;;;16.15;6.20;;;7.90;55.40;;;;;;5065135;28;20023;-72
2021/03/20 12:59:36;;;;;;;;;;;7.90;55.40;;;;;;5065250;28;20017;-74
2021/03/20 13:02:02;;;;;;;27.90;6.43;;;7.90;55.40;;;;;;5064665;28;19911;-72
2021/03/20 13:04:28;;;;;;;18.92;5.80;;;7.90;55.40;;;;;;5064755;28;20088;-71
2021/03/20 13:06:53;;;;;;;23.67;5.75;;;7.90;55.40;;;;;;5064639;28;20252;-70
2021/03/20 13:09:19;;;;;;;18.17;5.85;;;7.90;55.50;;;;;;5064681;28;20063;-71
2021/03/20 13:11:45;;;;;;;30.27;7.60;;;7.90;55.50;;;;;;5064616;28;20045;-71
2021/03/20 13:14:12;;;;;;;17.70;5.68;;;7.90;55.50;;;;;;5064559;28;20148;-72
2021/03/20 13:16:38;;;;;;;14.80;5.53;;;7.90;55.50;;;;;;5064448;28;20084;-72
2021/03/20 13:19:04;;;;;;;23.95;4.95;;;7.90;55.50;;;;;;5064435;28;20040;-70
2021/03/20 13:21:30;;;;;;;23.85;5.28;;;7.90;55.60;;;;;;5064172;28;20045;-72
2021/03/20 13:23:56;;;;;;;18.35;4.88;;;7.90;55.60;;;;;;5064337;28;20028;-72
2021/03/20 13:26:22;;;;;;;21.63;4.95;;;7.80;55.60;;;;;;5064346;28;20094;-72
2021/03/20 13:28:48;;;;;;;18.92;5.22;;;7.80;55.60;;;;;;5064180;28;20021;-70
2021/03/20 13:31:14;;;;;;;15.18;4.57;;;7.90;55.60;;;;;;5064197;28;20036;-70
2021/03/20 13:33:41;;;;;;;15.63;5.40;;;7.80;55.60;;;;;;5063287;28;20085;-71
2021/03/20 13:36:08;;;;;;;11.65;5.00;;;7.80;55.70;;;;;;5064172;28;20227;-72
2021/03/20 13:38:34;;;;;;;17.92;5.00;;;7.80;55.70;;;;;;5064063;28;20392;-69